sensor_id;sensor_type;location;lat;lon;timestamp;P1;durP1;ratioP1;P2;durP2;ratioP2
3667;SDS011;24099;47.102;15.440;2023-01-23T00:01:14;2.35;;;1.67;;
3667;SDS011;24099;47.102;15.440;2023-01-23T00:03:48;2.28;;;1.10;;
3667;SDS011;24099;47.102;15.440;2023-01-23T00:06:16;1.33;;;1.02;;
3667;SDS011;24099;47.102;15.440;2023-01-23T00:08:45;2.33;;;0.98;;
3667;SDS011;24099;47.102;15.440;2023-01-23T00:11:13;1.40;;;1.30;;
3667;SDS011;24099;47.102;15.440;2023-01-23T00:13:43;1.08;;;1.05;;
3667;SDS011;24099;47.102;15.440;2023-01-23T00:16:12;1.00;;;1.00;;
3667;SDS011;24099;47.102;15.440;2023-01-23T00:18:40;1.70;;;1.05;;
3667;SDS011;24099;47.102;15.440;2023-01-23T00:21:11;5.72;;;2.28;;
3667;SDS011;24099;47.102;15.440;2023-01-23T00:23:41;3.70;;;1.80;;
3667;SDS011;24099;47.102;15.440;2023-01-23T00:26:10;2.95;;;1.02;;
3667;SDS011;24099;47.102;15.440;2023-01-23T00:28:42;2.03;;;1.65;;
3667;SDS011;24099;47.102;15.440;2023-01-23T00:31:21;1.90;;;1.20;;
3667;SDS011;24099;47.102;15.440;2023-01-23T00:33:54;1.45;;;1.35;;
3667;SDS011;24099;47.102;15.440;2023-01-23T00:36:27;4.35;;;1.67;;
3667;SDS011;24099;47.102;15.440;2023-01-23T00:38:56;2.70;;;1.40;;
3667;SDS011;24099;47.102;15.440;2023-01-23T00:41:25;1.63;;;1.52;;
3667;SDS011;24099;47.102;15.440;2023-01-23T00:43:53;2.97;;;1.70;;
3667;SDS011;24099;47.102;15.440;2023-01-23T00:46:21;1.20;;;1.10;;
3667;SDS011;24099;47.102;15.440;2023-01-23T00:48:50;2.70;;;1.63;;
3667;SDS011;24099;47.102;15.440;2023-01-23T00:51:18;2.30;;;1.83;;
3667;SDS011;24099;47.102;15.440;2023-01-23T00:53:47;1.20;;;1.17;;
3667;SDS011;24099;47.102;15.440;2023-01-23T00:56:15;6.65;;;2.00;;
3667;SDS011;24099;47.102;15.440;2023-01-23T00:58:44;1.85;;;1.00;;
3667;SDS011;24099;47.102;15.440;2023-01-23T01:01:12;2.90;;;2.00;;
3667;SDS011;24099;47.102;15.440;2023-01-23T01:03:40;2.13;;;1.45;;
3667;SDS011;24099;47.102;15.440;2023-01-23T01:06:09;0.80;;;0.80;;
3667;SDS011;24099;47.102;15.440;2023-01-23T01:08:38;2.15;;;1.23;;
3667;SDS011;24099;47.102;15.440;2023-01-23T01:11:07;2.10;;;1.35;;
3667;SDS011;24099;47.102;15.440;2023-01-23T01:13:35;2.47;;;1.73;;
3667;SDS011;24099;47.102;15.440;2023-01-23T01:16:07;1.60;;;1.50;;
3667;SDS011;24099;47.102;15.440;2023-01-23T01:18:36;1.20;;;1.17;;
3667;SDS011;24099;47.102;15.440;2023-01-23T01:21:08;6.20;;;1.75;;
3667;SDS011;24099;47.102;15.440;2023-01-23T01:23:38;1.58;;;1.48;;
3667;SDS011;24099;47.102;15.440;2023-01-23T01:26:09;2.05;;;1.45;;
3667;SDS011;24099;47.102;15.440;2023-01-23T01:28:38;1.63;;;1.15;;
3667;SDS011;24099;47.102;15.440;2023-01-23T01:31:08;2.55;;;2.03;;
3667;SDS011;24099;47.102;15.440;2023-01-23T01:33:38;3.13;;;1.92;;
3667;SDS011;24099;47.102;15.440;2023-01-23T01:36:08;2.35;;;1.75;;
3667;SDS011;24099;47.102;15.440;2023-01-23T01:38:36;2.10;;;1.58;;
3667;SDS011;24099;47.102;15.440;2023-01-23T01:41:04;2.05;;;1.05;;
3667;SDS011;24099;47.102;15.440;2023-01-23T01:43:35;1.92;;;1.50;;
3667;SDS011;24099;47.102;15.440;2023-01-23T01:46:05;2.10;;;1.48;;
3667;SDS011;24099;47.102;15.440;2023-01-23T01:48:38;1.60;;;1.35;;
3667;SDS011;24099;47.102;15.440;2023-01-23T01:51:11;1.67;;;1.58;;
3667;SDS011;24099;47.102;15.440;2023-01-23T01:53:44;1.42;;;1.30;;
3667;SDS011;24099;47.102;15.440;2023-01-23T01:56:16;2.15;;;1.83;;
3667;SDS011;24099;47.102;15.440;2023-01-23T01:58:47;2.80;;;2.40;;
3667;SDS011;24099;47.102;15.440;2023-01-23T02:01:19;1.50;;;1.40;;
3667;SDS011;24099;47.102;15.440;2023-01-23T02:03:47;3.72;;;1.25;;
3667;SDS011;24099;47.102;15.440;2023-01-23T02:06:17;2.00;;;1.67;;
3667;SDS011;24099;47.102;15.440;2023-01-23T02:08:51;3.33;;;1.75;;
3667;SDS011;24099;47.102;15.440;2023-01-23T02:11:23;1.58;;;1.08;;
3667;SDS011;24099;47.102;15.440;2023-01-23T02:13:52;2.40;;;1.98;;
3667;SDS011;24099;47.102;15.440;2023-01-23T02:16:25;2.13;;;1.73;;
3667;SDS011;24099;47.102;15.440;2023-01-23T02:18:58;3.50;;;1.75;;
3667;SDS011;24099;47.102;15.440;2023-01-23T02:21:29;4.45;;;2.78;;
3667;SDS011;24099;47.102;15.440;2023-01-23T02:24:07;7.80;;;2.85;;
3667;SDS011;24099;47.102;15.440;2023-01-23T02:26:47;1.38;;;1.25;;
3667;SDS011;24099;47.102;15.440;2023-01-23T02:29:15;3.13;;;2.05;;
3667;SDS011;24099;47.102;15.440;2023-01-23T02:31:49;1.98;;;1.30;;
3667;SDS011;24099;47.102;15.440;2023-01-23T02:34:19;1.27;;;1.17;;
3667;SDS011;24099;47.102;15.440;2023-01-23T02:36:52;1.65;;;1.55;;
3667;SDS011;24099;47.102;15.440;2023-01-23T02:39:20;4.82;;;2.33;;
3667;SDS011;24099;47.102;15.440;2023-01-23T02:41:53;2.85;;;2.08;;
3667;SDS011;24099;47.102;15.440;2023-01-23T02:44:35;2.15;;;1.75;;
3667;SDS011;24099;47.102;15.440;2023-01-23T02:47:04;1.95;;;1.67;;
3667;SDS011;24099;47.102;15.440;2023-01-23T02:49:36;2.13;;;1.67;;
3667;SDS011;24099;47.102;15.440;2023-01-23T02:52:08;1.90;;;1.10;;
3667;SDS011;24099;47.102;15.440;2023-01-23T02:54:36;1.88;;;1.25;;
3667;SDS011;24099;47.102;15.440;2023-01-23T02:57:15;5.78;;;1.60;;
3667;SDS011;24099;47.102;15.440;2023-01-23T02:59:43;1.42;;;1.08;;
3667;SDS011;24099;47.102;15.440;2023-01-23T03:02:33;1.52;;;1.20;;
3667;SDS011;24099;47.102;15.440;2023-01-23T03:05:02;0.93;;;0.85;;
3667;SDS011;24099;47.102;15.440;2023-01-23T03:07:33;4.07;;;1.25;;
3667;SDS011;24099;47.102;15.440;2023-01-23T03:10:03;3.60;;;1.60;;
3667;SDS011;24099;47.102;15.440;2023-01-23T03:12:34;0.70;;;0.63;;
3667;SDS011;24099;47.102;15.440;2023-01-23T03:15:13;2.47;;;1.20;;
3667;SDS011;24099;47.102;15.440;2023-01-23T03:17:40;3.00;;;1.42;;
3667;SDS011;24099;47.102;15.440;2023-01-23T03:20:09;1.02;;;0.93;;
3667;SDS011;24099;47.102;15.440;2023-01-23T03:22:39;1.13;;;1.02;;
3667;SDS011;24099;47.102;15.440;2023-01-23T03:25:07;0.63;;;0.63;;
3667;SDS011;24099;47.102;15.440;2023-01-23T03:27:37;0.77;;;0.77;;
3667;SDS011;24099;47.102;15.440;2023-01-23T03:30:06;1.15;;;0.60;;
3667;SDS011;24099;47.102;15.440;2023-01-23T03:32:39;1.20;;;0.95;;
3667;SDS011;24099;47.102;15.440;2023-01-23T03:35:07;2.70;;;1.35;;
3667;SDS011;24099;47.102;15.440;2023-01-23T03:37:38;0.65;;;0.65;;
3667;SDS011;24099;47.102;15.440;2023-01-23T03:40:07;0.70;;;0.70;;
3667;SDS011;24099;47.102;15.440;2023-01-23T03:43:00;0.80;;;0.80;;
3667;SDS011;24099;47.102;15.440;2023-01-23T03:45:28;0.70;;;0.70;;
3667;SDS011;24099;47.102;15.440;2023-01-23T03:47:56;1.27;;;1.13;;
3667;SDS011;24099;47.102;15.440;2023-01-23T03:50:24;0.88;;;0.88;;
3667;SDS011;24099;47.102;15.440;2023-01-23T03:52:52;0.70;;;0.70;;
3667;SDS011;24099;47.102;15.440;2023-01-23T03:55:19;0.85;;;0.77;;
3667;SDS011;24099;47.102;15.440;2023-01-23T03:57:47;0.45;;;0.45;;
3667;SDS011;24099;47.102;15.440;2023-01-23T04:00:17;0.68;;;0.65;;
3667;SDS011;24099;47.102;15.440;2023-01-23T04:02:56;0.60;;;0.60;;
3667;SDS011;24099;47.102;15.440;2023-01-23T04:05:25;1.83;;;1.15;;
3667;SDS011;24099;47.102;15.440;2023-01-23T04:07:53;0.82;;;0.82;;
3667;SDS011;24099;47.102;15.440;2023-01-23T04:10:27;0.60;;;0.60;;
3667;SDS011;24099;47.102;15.440;2023-01-23T04:13:01;0.40;;;0.40;;
3667;SDS011;24099;47.102;15.440;2023-01-23T04:15:32;4.22;;;1.30;;
3667;SDS011;24099;47.102;15.440;2023-01-23T04:18:09;1.08;;;0.70;;
3667;SDS011;24099;47.102;15.440;2023-01-23T04:20:37;1.77;;;1.33;;
3667;SDS011;24099;47.102;15.440;2023-01-23T04:23:05;0.52;;;0.52;;
3667;SDS011;24099;47.102;15.440;2023-01-23T04:25:33;1.77;;;1.13;;
3667;SDS011;24099;47.102;15.440;2023-01-23T04:28:02;1.52;;;0.75;;
3667;SDS011;24099;47.102;15.440;2023-01-23T04:30:32;1.08;;;1.02;;
3667;SDS011;24099;47.102;15.440;2023-01-23T04:33:08;0.60;;;0.60;;
3667;SDS011;24099;47.102;15.440;2023-01-23T04:35:37;0.57;;;0.57;;
3667;SDS011;24099;47.102;15.440;2023-01-23T04:38:05;0.88;;;0.85;;
3667;SDS011;24099;47.102;15.440;2023-01-23T04:40:36;0.98;;;0.88;;
3667;SDS011;24099;47.102;15.440;2023-01-23T04:43:17;0.70;;;0.70;;
3667;SDS011;24099;47.102;15.440;2023-01-23T04:45:51;0.55;;;0.55;;
3667;SDS011;24099;47.102;15.440;2023-01-23T04:48:38;1.00;;;0.55;;
3667;SDS011;24099;47.102;15.440;2023-01-23T04:51:07;0.80;;;0.77;;
3667;SDS011;24099;47.102;15.440;2023-01-23T04:53:37;0.60;;;0.60;;
3667;SDS011;24099;47.102;15.440;2023-01-23T04:56:06;1.23;;;0.77;;
3667;SDS011;24099;47.102;15.440;2023-01-23T04:58:35;2.17;;;1.17;;
3667;SDS011;24099;47.102;15.440;2023-01-23T05:01:05;0.70;;;0.70;;
3667;SDS011;24099;47.102;15.440;2023-01-23T05:03:34;0.95;;;0.70;;
3667;SDS011;24099;47.102;15.440;2023-01-23T05:06:02;0.60;;;0.60;;
3667;SDS011;24099;47.102;15.440;2023-01-23T05:08:31;2.13;;;0.77;;
3667;SDS011;24099;47.102;15.440;2023-01-23T05:11:13;4.63;;;0.70;;
3667;SDS011;24099;47.102;15.440;2023-01-23T05:13:42;0.60;;;0.60;;
3667;SDS011;24099;47.102;15.440;2023-01-23T05:16:13;0.60;;;0.40;;
3667;SDS011;24099;47.102;15.440;2023-01-23T05:18:59;0.85;;;0.85;;
3667;SDS011;24099;47.102;15.440;2023-01-23T05:21:29;0.95;;;0.77;;
3667;SDS011;24099;47.102;15.440;2023-01-23T05:23:56;0.52;;;0.50;;
3667;SDS011;24099;47.102;15.440;2023-01-23T05:26:24;0.57;;;0.57;;
3667;SDS011;24099;47.102;15.440;2023-01-23T05:28:54;0.70;;;0.70;;
3667;SDS011;24099;47.102;15.440;2023-01-23T05:31:24;0.82;;;0.80;;
3667;SDS011;24099;47.102;15.440;2023-01-23T05:34:12;0.80;;;0.60;;
3667;SDS011;24099;47.102;15.440;2023-01-23T05:36:43;1.48;;;0.98;;
3667;SDS011;24099;47.102;15.440;2023-01-23T05:39:30;2.17;;;1.08;;
3667;SDS011;24099;47.102;15.440;2023-01-23T05:41:59;0.45;;;0.35;;
3667;SDS011;24099;47.102;15.440;2023-01-23T05:44:47;0.93;;;0.80;;
3667;SDS011;24099;47.102;15.440;2023-01-23T05:47:27;0.60;;;0.60;;
3667;SDS011;24099;47.102;15.440;2023-01-23T05:49:58;0.65;;;0.65;;
3667;SDS011;24099;47.102;15.440;2023-01-23T05:52:31;0.50;;;0.50;;
3667;SDS011;24099;47.102;15.440;2023-01-23T05:55:02;1.23;;;1.13;;
3667;SDS011;24099;47.102;15.440;2023-01-23T05:57:32;0.85;;;0.77;;
3667;SDS011;24099;47.102;15.440;2023-01-23T06:00:33;0.57;;;0.57;;
3667;SDS011;24099;47.102;15.440;2023-01-23T06:03:22;0.65;;;0.40;;
3667;SDS011;24099;47.102;15.440;2023-01-23T06:06:19;0.47;;;0.47;;
3667;SDS011;24099;47.102;15.440;2023-01-23T06:08:47;0.73;;;0.73;;
3667;SDS011;24099;47.102;15.440;2023-01-23T06:11:15;0.50;;;0.50;;
3667;SDS011;24099;47.102;15.440;2023-01-23T06:13:43;0.40;;;0.40;;
3667;SDS011;24099;47.102;15.440;2023-01-23T06:16:11;0.88;;;0.65;;
3667;SDS011;24099;47.102;15.440;2023-01-23T06:18:40;1.88;;;1.02;;
3667;SDS011;24099;47.102;15.440;2023-01-23T06:21:08;0.35;;;0.35;;
3667;SDS011;24099;47.102;15.440;2023-01-23T06:23:37;1.67;;;1.05;;
3667;SDS011;24099;47.102;15.440;2023-01-23T06:26:05;1.02;;;0.95;;
3667;SDS011;24099;47.102;15.440;2023-01-23T06:28:34;0.73;;;0.73;;
3667;SDS011;24099;47.102;15.440;2023-01-23T06:31:04;2.05;;;1.35;;
3667;SDS011;24099;47.102;15.440;2023-01-23T06:33:58;0.40;;;0.40;;
3667;SDS011;24099;47.102;15.440;2023-01-23T06:36:39;0.75;;;0.70;;
3667;SDS011;24099;47.102;15.440;2023-01-23T06:39:07;1.98;;;1.15;;
3667;SDS011;24099;47.102;15.440;2023-01-23T06:41:40;1.00;;;0.98;;
3667;SDS011;24099;47.102;15.440;2023-01-23T06:44:17;0.50;;;0.50;;
3667;SDS011;24099;47.102;15.440;2023-01-23T06:46:46;1.05;;;0.80;;
3667;SDS011;24099;47.102;15.440;2023-01-23T06:49:15;0.75;;;0.60;;
3667;SDS011;24099;47.102;15.440;2023-01-23T06:51:43;1.30;;;1.13;;
3667;SDS011;24099;47.102;15.440;2023-01-23T06:54:12;1.20;;;1.10;;
3667;SDS011;24099;47.102;15.440;2023-01-23T06:56:40;1.02;;;0.77;;
3667;SDS011;24099;47.102;15.440;2023-01-23T06:59:09;0.40;;;0.40;;
3667;SDS011;24099;47.102;15.440;2023-01-23T07:01:37;0.68;;;0.68;;
3667;SDS011;24099;47.102;15.440;2023-01-23T07:04:19;3.70;;;0.80;;
3667;SDS011;24099;47.102;15.440;2023-01-23T07:06:49;0.82;;;0.82;;
3667;SDS011;24099;47.102;15.440;2023-01-23T07:09:18;3.40;;;1.67;;
3667;SDS011;24099;47.102;15.440;2023-01-23T07:12:00;0.60;;;0.60;;
3667;SDS011;24099;47.102;15.440;2023-01-23T07:14:30;1.08;;;0.93;;
3667;SDS011;24099;47.102;15.440;2023-01-23T07:16:59;1.00;;;0.98;;
3667;SDS011;24099;47.102;15.440;2023-01-23T07:19:30;0.68;;;0.68;;
3667;SDS011;24099;47.102;15.440;2023-01-23T07:21:58;1.38;;;1.23;;
3667;SDS011;24099;47.102;15.440;2023-01-23T07:24:26;1.08;;;0.98;;
3667;SDS011;24099;47.102;15.440;2023-01-23T07:26:57;3.25;;;1.05;;
3667;SDS011;24099;47.102;15.440;2023-01-23T07:29:25;2.80;;;1.30;;
3667;SDS011;24099;47.102;15.440;2023-01-23T07:31:52;1.63;;;1.00;;
3667;SDS011;24099;47.102;15.440;2023-01-23T07:34:20;4.30;;;1.00;;
3667;SDS011;24099;47.102;15.440;2023-01-23T07:36:50;0.60;;;0.60;;
3667;SDS011;24099;47.102;15.440;2023-01-23T07:39:20;0.77;;;0.77;;
3667;SDS011;24099;47.102;15.440;2023-01-23T07:41:49;1.48;;;0.80;;
3667;SDS011;24099;47.102;15.440;2023-01-23T07:44:17;0.57;;;0.50;;
3667;SDS011;24099;47.102;15.440;2023-01-23T07:46:46;0.38;;;0.38;;
3667;SDS011;24099;47.102;15.440;2023-01-23T07:49:15;0.57;;;0.57;;
3667;SDS011;24099;47.102;15.440;2023-01-23T07:51:43;0.65;;;0.60;;
3667;SDS011;24099;47.102;15.440;2023-01-23T07:54:12;0.57;;;0.57;;
3667;SDS011;24099;47.102;15.440;2023-01-23T07:56:40;0.82;;;0.82;;
3667;SDS011;24099;47.102;15.440;2023-01-23T07:59:08;0.47;;;0.47;;
3667;SDS011;24099;47.102;15.440;2023-01-23T08:01:37;0.55;;;0.55;;
3667;SDS011;24099;47.102;15.440;2023-01-23T08:04:06;5.00;;;1.08;;
3667;SDS011;24099;47.102;15.440;2023-01-23T08:06:34;1.33;;;0.52;;
3667;SDS011;24099;47.102;15.440;2023-01-23T08:09:02;0.43;;;0.43;;
3667;SDS011;24099;47.102;15.440;2023-01-23T08:11:31;0.30;;;0.30;;
3667;SDS011;24099;47.102;15.440;2023-01-23T08:13:59;1.98;;;0.63;;
3667;SDS011;24099;47.102;15.440;2023-01-23T08:16:27;0.65;;;0.52;;
3667;SDS011;24099;47.102;15.440;2023-01-23T08:18:54;0.57;;;0.35;;
3667;SDS011;24099;47.102;15.440;2023-01-23T08:21:23;0.57;;;0.57;;
3667;SDS011;24099;47.102;15.440;2023-01-23T08:23:51;0.30;;;0.30;;
3667;SDS011;24099;47.102;15.440;2023-01-23T08:26:19;0.50;;;0.50;;
3667;SDS011;24099;47.102;15.440;2023-01-23T08:28:48;0.95;;;0.75;;
3667;SDS011;24099;47.102;15.440;2023-01-23T08:31:16;0.40;;;0.40;;
3667;SDS011;24099;47.102;15.440;2023-01-23T08:33:44;0.45;;;0.45;;
3667;SDS011;24099;47.102;15.440;2023-01-23T08:36:12;0.55;;;0.50;;
3667;SDS011;24099;47.102;15.440;2023-01-23T08:38:39;1.27;;;1.17;;
3667;SDS011;24099;47.102;15.440;2023-01-23T08:41:07;1.17;;;0.80;;
3667;SDS011;24099;47.102;15.440;2023-01-23T08:43:36;1.30;;;0.75;;
3667;SDS011;24099;47.102;15.440;2023-01-23T08:46:07;0.77;;;0.65;;
3667;SDS011;24099;47.102;15.440;2023-01-23T08:48:35;0.93;;;0.65;;
3667;SDS011;24099;47.102;15.440;2023-01-23T08:51:04;1.80;;;0.70;;
3667;SDS011;24099;47.102;15.440;2023-01-23T08:53:33;0.40;;;0.30;;
3667;SDS011;24099;47.102;15.440;2023-01-23T08:56:02;0.38;;;0.38;;
3667;SDS011;24099;47.102;15.440;2023-01-23T08:58:31;0.45;;;0.45;;
3667;SDS011;24099;47.102;15.440;2023-01-23T09:00:59;1.30;;;0.55;;
3667;SDS011;24099;47.102;15.440;2023-01-23T09:03:31;0.80;;;0.50;;
3667;SDS011;24099;47.102;15.440;2023-01-23T09:05:59;0.32;;;0.32;;
3667;SDS011;24099;47.102;15.440;2023-01-23T09:08:27;0.60;;;0.60;;
3667;SDS011;24099;47.102;15.440;2023-01-23T09:10:58;0.43;;;0.43;;
3667;SDS011;24099;47.102;15.440;2023-01-23T09:13:26;0.52;;;0.52;;
3667;SDS011;24099;47.102;15.440;2023-01-23T09:15:57;0.22;;;0.22;;
3667;SDS011;24099;47.102;15.440;2023-01-23T09:18:26;0.68;;;0.68;;
3667;SDS011;24099;47.102;15.440;2023-01-23T09:20:55;0.88;;;0.60;;
3667;SDS011;24099;47.102;15.440;2023-01-23T09:23:23;1.13;;;0.60;;
3667;SDS011;24099;47.102;15.440;2023-01-23T09:25:50;1.05;;;0.80;;
3667;SDS011;24099;47.102;15.440;2023-01-23T09:28:18;0.40;;;0.40;;
3667;SDS011;24099;47.102;15.440;2023-01-23T09:30:46;0.32;;;0.32;;
3667;SDS011;24099;47.102;15.440;2023-01-23T09:33:13;0.88;;;0.55;;
3667;SDS011;24099;47.102;15.440;2023-01-23T09:35:42;0.88;;;0.80;;
3667;SDS011;24099;47.102;15.440;2023-01-23T09:38:11;1.00;;;0.82;;
3667;SDS011;24099;47.102;15.440;2023-01-23T09:40:43;0.73;;;0.70;;
3667;SDS011;24099;47.102;15.440;2023-01-23T09:43:14;0.60;;;0.60;;
3667;SDS011;24099;47.102;15.440;2023-01-23T09:45:50;0.47;;;0.45;;
3667;SDS011;24099;47.102;15.440;2023-01-23T09:48:26;0.25;;;0.20;;
3667;SDS011;24099;47.102;15.440;2023-01-23T09:50:58;1.08;;;0.65;;
3667;SDS011;24099;47.102;15.440;2023-01-23T09:53:33;2.47;;;1.05;;
3667;SDS011;24099;47.102;15.440;2023-01-23T09:56:05;0.43;;;0.43;;
3667;SDS011;24099;47.102;15.440;2023-01-23T09:58:45;0.90;;;0.85;;
3667;SDS011;24099;47.102;15.440;2023-01-23T10:01:22;0.90;;;0.50;;
3667;SDS011;24099;47.102;15.440;2023-01-23T10:03:53;0.40;;;0.40;;
3667;SDS011;24099;47.102;15.440;2023-01-23T10:06:22;0.40;;;0.40;;
3667;SDS011;24099;47.102;15.440;2023-01-23T10:11:49;0.35;;;0.35;;
3667;SDS011;24099;47.102;15.440;2023-01-23T10:14:34;0.60;;;0.60;;
3667;SDS011;24099;47.102;15.440;2023-01-23T10:17:18;0.93;;;0.52;;
3667;SDS011;24099;47.102;15.440;2023-01-23T10:19:57;0.80;;;0.68;;
3667;SDS011;24099;47.102;15.440;2023-01-23T10:22:48;0.98;;;0.57;;
3667;SDS011;24099;47.102;15.440;2023-01-23T10:27:54;1.33;;;0.85;;
3667;SDS011;24099;47.102;15.440;2023-01-23T10:30:27;2.20;;;1.00;;
3667;SDS011;24099;47.102;15.440;2023-01-23T10:32:58;1.88;;;1.15;;
3667;SDS011;24099;47.102;15.440;2023-01-23T10:35:30;0.68;;;0.68;;
3667;SDS011;24099;47.102;15.440;2023-01-23T10:38:04;1.38;;;0.93;;
3667;SDS011;24099;47.102;15.440;2023-01-23T10:40:45;1.20;;;0.90;;
3667;SDS011;24099;47.102;15.440;2023-01-23T10:43:31;3.70;;;1.10;;
3667;SDS011;24099;47.102;15.440;2023-01-23T10:45:59;1.70;;;1.25;;
3667;SDS011;24099;47.102;15.440;2023-01-23T10:48:38;0.95;;;0.90;;
3667;SDS011;24099;47.102;15.440;2023-01-23T10:51:24;2.25;;;0.98;;
3667;SDS011;24099;47.102;15.440;2023-01-23T10:54:13;1.90;;;0.88;;
3667;SDS011;24099;47.102;15.440;2023-01-23T10:56:47;0.80;;;0.80;;
3667;SDS011;24099;47.102;15.440;2023-01-23T10:59:27;1.25;;;1.02;;
3667;SDS011;24099;47.102;15.440;2023-01-23T11:01:58;1.27;;;1.05;;
3667;SDS011;24099;47.102;15.440;2023-01-23T11:04:44;1.13;;;1.02;;
3667;SDS011;24099;47.102;15.440;2023-01-23T11:07:14;1.58;;;1.23;;
3667;SDS011;24099;47.102;15.440;2023-01-23T11:09:44;2.30;;;1.23;;
3667;SDS011;24099;47.102;15.440;2023-01-23T11:12:16;1.85;;;1.30;;
3667;SDS011;24099;47.102;15.440;2023-01-23T11:14:45;2.78;;;1.25;;
3667;SDS011;24099;47.102;15.440;2023-01-23T11:17:13;2.92;;;1.45;;
3667;SDS011;24099;47.102;15.440;2023-01-23T11:19:45;2.03;;;1.50;;
3667;SDS011;24099;47.102;15.440;2023-01-23T11:22:25;5.10;;;2.28;;
3667;SDS011;24099;47.102;15.440;2023-01-23T11:24:56;2.55;;;1.33;;
3667;SDS011;24099;47.102;15.440;2023-01-23T11:27:26;1.88;;;1.48;;
3667;SDS011;24099;47.102;15.440;2023-01-23T11:32:59;1.65;;;1.27;;
3667;SDS011;24099;47.102;15.440;2023-01-23T11:35:46;1.00;;;0.90;;
3667;SDS011;24099;47.102;15.440;2023-01-23T11:38:25;1.63;;;1.33;;
3667;SDS011;24099;47.102;15.440;2023-01-23T11:40:58;2.22;;;1.35;;
3667;SDS011;24099;47.102;15.440;2023-01-23T11:43:27;1.60;;;1.23;;
3667;SDS011;24099;47.102;15.440;2023-01-23T11:46:02;1.40;;;1.23;;
3667;SDS011;24099;47.102;15.440;2023-01-23T11:48:48;1.20;;;1.10;;
3667;SDS011;24099;47.102;15.440;2023-01-23T11:51:33;2.28;;;1.40;;
3667;SDS011;24099;47.102;15.440;2023-01-23T11:54:09;1.52;;;1.08;;
3667;SDS011;24099;47.102;15.440;2023-01-23T11:57:00;4.93;;;1.73;;
3667;SDS011;24099;47.102;15.440;2023-01-23T11:59:38;3.05;;;1.02;;
3667;SDS011;24099;47.102;15.440;2023-01-23T12:02:38;1.73;;;1.23;;
3667;SDS011;24099;47.102;15.440;2023-01-23T12:05:25;1.65;;;1.48;;
3667;SDS011;24099;47.102;15.440;2023-01-23T12:08:18;0.95;;;0.90;;
3667;SDS011;24099;47.102;15.440;2023-01-23T12:10:55;1.23;;;1.13;;
3667;SDS011;24099;47.102;15.440;2023-01-23T12:13:41;2.03;;;1.27;;
3667;SDS011;24099;47.102;15.440;2023-01-23T12:16:25;1.27;;;1.17;;
3667;SDS011;24099;47.102;15.440;2023-01-23T12:19:04;1.17;;;1.10;;
3667;SDS011;24099;47.102;15.440;2023-01-23T12:21:45;0.75;;;0.75;;
3667;SDS011;24099;47.102;15.440;2023-01-23T12:24:24;2.08;;;1.88;;
3667;SDS011;24099;47.102;15.440;2023-01-23T12:27:06;9.95;;;1.73;;
3667;SDS011;24099;47.102;15.440;2023-01-23T12:29:48;1.23;;;0.95;;
3667;SDS011;24099;47.102;15.440;2023-01-23T12:32:34;1.30;;;1.20;;
3667;SDS011;24099;47.102;15.440;2023-01-23T12:35:34;5.47;;;1.60;;
3667;SDS011;24099;47.102;15.440;2023-01-23T12:38:21;2.80;;;1.75;;
3667;SDS011;24099;47.102;15.440;2023-01-23T12:40:57;2.55;;;1.33;;
3667;SDS011;24099;47.102;15.440;2023-01-23T12:43:37;3.70;;;1.30;;
3667;SDS011;24099;47.102;15.440;2023-01-23T12:46:11;3.92;;;1.88;;
3667;SDS011;24099;47.102;15.440;2023-01-23T12:48:45;0.70;;;0.70;;
3667;SDS011;24099;47.102;15.440;2023-01-23T12:51:18;2.95;;;1.23;;
3667;SDS011;24099;47.102;15.440;2023-01-23T12:53:49;2.97;;;1.70;;
3667;SDS011;24099;47.102;15.440;2023-01-23T12:56:22;2.97;;;1.90;;
3667;SDS011;24099;47.102;15.440;2023-01-23T12:58:54;1.48;;;1.30;;
3667;SDS011;24099;47.102;15.440;2023-01-23T13:01:34;2.47;;;1.25;;
3667;SDS011;24099;47.102;15.440;2023-01-23T13:04:19;5.03;;;2.10;;
3667;SDS011;24099;47.102;15.440;2023-01-23T13:07:00;3.25;;;1.75;;
3667;SDS011;24099;47.102;15.440;2023-01-23T13:09:49;6.05;;;1.85;;
3667;SDS011;24099;47.102;15.440;2023-01-23T13:12:31;3.88;;;2.13;;
3667;SDS011;24099;47.102;15.440;2023-01-23T13:17:57;3.35;;;2.13;;
3667;SDS011;24099;47.102;15.440;2023-01-23T13:20:30;2.85;;;2.03;;
3667;SDS011;24099;47.102;15.440;2023-01-23T13:23:23;3.08;;;1.55;;
3667;SDS011;24099;47.102;15.440;2023-01-23T13:28:51;1.15;;;1.10;;
3667;SDS011;24099;47.102;15.440;2023-01-23T13:31:24;1.15;;;0.95;;
3667;SDS011;24099;47.102;15.440;2023-01-23T13:34:08;2.80;;;1.00;;
3667;SDS011;24099;47.102;15.440;2023-01-23T13:40:20;1.00;;;1.00;;
3667;SDS011;24099;47.102;15.440;2023-01-23T13:42:49;1.92;;;1.20;;
3667;SDS011;24099;47.102;15.440;2023-01-23T13:45:18;3.50;;;1.85;;
3667;SDS011;24099;47.102;15.440;2023-01-23T13:51:28;3.55;;;2.20;;
3667;SDS011;24099;47.102;15.440;2023-01-23T13:53:56;2.45;;;1.70;;
3667;SDS011;24099;47.102;15.440;2023-01-23T13:56:44;2.00;;;1.57;;
3667;SDS011;24099;47.102;15.440;2023-01-23T13:59:20;1.85;;;1.60;;
3667;SDS011;24099;47.102;15.440;2023-01-23T14:01:53;3.53;;;2.35;;
3667;SDS011;24099;47.102;15.440;2023-01-23T14:04:54;3.63;;;1.55;;
3667;SDS011;24099;47.102;15.440;2023-01-23T14:07:39;1.77;;;1.30;;
3667;SDS011;24099;47.102;15.440;2023-01-23T14:10:26;1.40;;;1.08;;
3667;SDS011;24099;47.102;15.440;2023-01-23T14:13:04;4.35;;;2.13;;
3667;SDS011;24099;47.102;15.440;2023-01-23T14:15:33;2.97;;;2.13;;
3667;SDS011;24099;47.102;15.440;2023-01-23T14:18:26;2.83;;;1.80;;
3667;SDS011;24099;47.102;15.440;2023-01-23T14:20:58;1.37;;;1.27;;
3667;SDS011;24099;47.102;15.440;2023-01-23T14:23:29;2.67;;;1.65;;
3667;SDS011;24099;47.102;15.440;2023-01-23T14:26:04;1.52;;;1.42;;
3667;SDS011;24099;47.102;15.440;2023-01-23T14:28:38;4.13;;;2.20;;
3667;SDS011;24099;47.102;15.440;2023-01-23T14:31:06;7.75;;;2.83;;
3667;SDS011;24099;47.102;15.440;2023-01-23T14:33:46;15.23;;;6.07;;
3667;SDS011;24099;47.102;15.440;2023-01-23T14:36:14;10.88;;;4.60;;
3667;SDS011;24099;47.102;15.440;2023-01-23T14:38:44;7.13;;;3.25;;
3667;SDS011;24099;47.102;15.440;2023-01-23T14:41:15;4.10;;;2.58;;
3667;SDS011;24099;47.102;15.440;2023-01-23T14:43:46;6.75;;;3.25;;
3667;SDS011;24099;47.102;15.440;2023-01-23T14:46:14;6.50;;;3.38;;
3667;SDS011;24099;47.102;15.440;2023-01-23T14:48:45;3.42;;;2.15;;
3667;SDS011;24099;47.102;15.440;2023-01-23T14:51:17;3.10;;;1.85;;
3667;SDS011;24099;47.102;15.440;2023-01-23T14:53:52;3.85;;;2.30;;
3667;SDS011;24099;47.102;15.440;2023-01-23T14:56:21;5.15;;;2.53;;
3667;SDS011;24099;47.102;15.440;2023-01-23T14:58:55;1.75;;;1.65;;
3667;SDS011;24099;47.102;15.440;2023-01-23T15:01:25;2.70;;;1.33;;
3667;SDS011;24099;47.102;15.440;2023-01-23T15:03:56;9.57;;;2.35;;
3667;SDS011;24099;47.102;15.440;2023-01-23T15:06:26;3.10;;;2.42;;
3667;SDS011;24099;47.102;15.440;2023-01-23T15:08:56;6.03;;;2.90;;
3667;SDS011;24099;47.102;15.440;2023-01-23T15:11:33;6.18;;;2.13;;
3667;SDS011;24099;47.102;15.440;2023-01-23T15:14:02;3.65;;;2.60;;
3667;SDS011;24099;47.102;15.440;2023-01-23T15:16:32;4.38;;;2.35;;
3667;SDS011;24099;47.102;15.440;2023-01-23T15:19:04;4.60;;;2.90;;
3667;SDS011;24099;47.102;15.440;2023-01-23T15:21:34;6.35;;;3.42;;
3667;SDS011;24099;47.102;15.440;2023-01-23T15:26:59;4.35;;;2.78;;
3667;SDS011;24099;47.102;15.440;2023-01-23T15:29:30;5.72;;;3.42;;
3667;SDS011;24099;47.102;15.440;2023-01-23T15:31:59;5.40;;;3.15;;
3667;SDS011;24099;47.102;15.440;2023-01-23T15:34:28;4.82;;;2.63;;
3667;SDS011;24099;47.102;15.440;2023-01-23T15:36:59;3.58;;;2.38;;
3667;SDS011;24099;47.102;15.440;2023-01-23T15:39:36;4.32;;;3.10;;
3667;SDS011;24099;47.102;15.440;2023-01-23T15:42:24;9.82;;;3.45;;
3667;SDS011;24099;47.102;15.440;2023-01-23T15:44:55;11.82;;;3.10;;
3667;SDS011;24099;47.102;15.440;2023-01-23T15:47:26;2.97;;;1.95;;